sensor_id;sensor_type;location;lat;lon;timestamp;pressure;altitude;pressure_sealevel;temperature;humidity
46756;BME280;32506;52.826;-1.192;2023-03-23T00:01:19;98554.88;;;10.75;61.19
46756;BME280;32506;52.826;-1.192;2023-03-23T00:03:49;98562.38;;;10.73;60.99
46756;BME280;32506;52.826;-1.192;2023-03-23T00:06:16;98559.13;;;10.71;61.22
46756;BME280;32506;52.826;-1.192;2023-03-23T00:08:47;98554.88;;;10.70;60.97
46756;BME280;32506;52.826;-1.192;2023-03-23T00:11:19;98560.47;;;10.69;60.79
46756;BME280;32506;52.826;-1.192;2023-03-23T00:13:47;98567.16;;;10.66;60.88
46756;BME280;32506;52.826;-1.192;2023-03-23T00:16:16;98581.03;;;10.63;60.98
46756;BME280;32506;52.826;-1.192;2023-03-23T00:18:48;98583.97;;;10.62;60.27
46756;BME280;32506;52.826;-1.192;2023-03-23T00:21:21;98588.78;;;10.60;60.75
46756;BME280;32506;52.826;-1.192;2023-03-23T00:24:07;98593.56;;;10.57;60.50
46756;BME280;32506;52.826;-1.192;2023-03-23T00:26:35;98588.75;;;10.54;60.54
46756;BME280;32506;52.826;-1.192;2023-03-23T00:29:04;98591.69;;;10.53;60.44
46756;BME280;32506;52.826;-1.192;2023-03-23T00:31:30;98610.88;;;10.50;60.29
46756;BME280;32506;52.826;-1.192;2023-03-23T00:34:01;98607.44;;;10.49;60.27
46756;BME280;32506;52.826;-1.192;2023-03-23T00:36:32;98630.91;;;10.47;60.33
46756;BME280;32506;52.826;-1.192;2023-03-23T00:39:03;98614.34;;;10.45;59.82
46756;BME280;32506;52.826;-1.192;2023-03-23T00:41:29;98622.63;;;10.44;60.15
46756;BME280;32506;52.826;-1.192;2023-03-23T00:43:58;98629.28;;;10.41;59.70
46756;BME280;32506;52.826;-1.192;2023-03-23T00:46:25;98638.63;;;10.38;59.78
46756;BME280;32506;52.826;-1.192;2023-03-23T00:48:51;98630.03;;;10.36;59.52
46756;BME280;32506;52.826;-1.192;2023-03-23T00:51:18;98642.00;;;10.34;59.69
46756;BME280;32506;52.826;-1.192;2023-03-23T00:53:44;98639.59;;;10.32;59.61
46756;BME280;32506;52.826;-1.192;2023-03-23T00:56:10;98635.84;;;10.28;59.43
46756;BME280;32506;52.826;-1.192;2023-03-23T00:58:36;98647.59;;;10.27;59.28
46756;BME280;32506;52.826;-1.192;2023-03-23T01:01:02;98645.44;;;10.24;59.27
46756;BME280;32506;52.826;-1.192;2023-03-23T01:03:28;98648.63;;;10.21;59.18
46756;BME280;32506;52.826;-1.192;2023-03-23T01:05:55;98651.78;;;10.18;58.81
46756;BME280;32506;52.826;-1.192;2023-03-23T01:08:22;98664.06;;;10.14;58.95
46756;BME280;32506;52.826;-1.192;2023-03-23T01:10:48;98676.88;;;10.12;58.88
46756;BME280;32506;52.826;-1.192;2023-03-23T01:13:15;98672.84;;;10.09;58.69
46756;BME280;32506;52.826;-1.192;2023-03-23T01:15:41;98668.81;;;10.06;58.55
46756;BME280;32506;52.826;-1.192;2023-03-23T01:18:07;98675.47;;;10.04;58.53
46756;BME280;32506;52.826;-1.192;2023-03-23T01:20:32;98682.13;;;10.01;58.08
46756;BME280;32506;52.826;-1.192;2023-03-23T01:22:59;98686.34;;;9.97;57.95
46756;BME280;32506;52.826;-1.192;2023-03-23T01:25:30;98702.88;;;9.94;58.30
46756;BME280;32506;52.826;-1.192;2023-03-23T01:27:56;98692.72;;;9.91;58.04
46756;BME280;32506;52.826;-1.192;2023-03-23T01:30:22;98715.38;;;9.88;58.16
46756;BME280;32506;52.826;-1.192;2023-03-23T01:32:47;98708.94;;;9.84;58.02
46756;BME280;32506;52.826;-1.192;2023-03-23T01:35:13;98713.97;;;9.81;58.10
46756;BME280;32506;52.826;-1.192;2023-03-23T01:37:39;98721.41;;;9.79;58.09
46756;BME280;32506;52.826;-1.192;2023-03-23T01:40:05;98727.28;;;9.76;58.14
46756;BME280;32506;52.826;-1.192;2023-03-23T01:42:33;98737.63;;;9.72;58.07
46756;BME280;32506;52.826;-1.192;2023-03-23T01:47:46;98726.38;;;9.65;58.14
46756;BME280;32506;52.826;-1.192;2023-03-23T01:50:11;98728.72;;;9.61;57.82
46756;BME280;32506;52.826;-1.192;2023-03-23T01:52:37;98738.84;;;9.59;57.98
46756;BME280;32506;52.826;-1.192;2023-03-23T01:55:03;98739.34;;;9.56;58.06
46756;BME280;32506;52.826;-1.192;2023-03-23T01:57:30;98743.34;;;9.53;57.95
46756;BME280;32506;52.826;-1.192;2023-03-23T01:59:57;98754.22;;;9.52;57.97
46756;BME280;32506;52.826;-1.192;2023-03-23T02:02:25;98750.44;;;9.48;58.25
46756;BME280;32506;52.826;-1.192;2023-03-23T02:04:56;98738.41;;;9.45;57.96
46756;BME280;32506;52.826;-1.192;2023-03-23T02:07:24;98746.69;;;9.44;58.04
46756;BME280;32506;52.826;-1.192;2023-03-23T02:09:53;98747.97;;;9.41;58.21
46756;BME280;32506;52.826;-1.192;2023-03-23T02:12:25;98755.44;;;9.39;58.24
46756;BME280;32506;52.826;-1.192;2023-03-23T02:14:51;98755.69;;;9.37;58.44
46756;BME280;32506;52.826;-1.192;2023-03-23T02:34:02;98769.16;;;9.26;58.63
46756;BME280;32506;52.826;-1.192;2023-03-23T02:36:36;98768.81;;;9.22;58.34
46756;BME280;32506;52.826;-1.192;2023-03-23T02:39:09;98773.38;;;9.21;58.67
46756;BME280;32506;52.826;-1.192;2023-03-23T02:41:46;98766.41;;;9.20;58.50
46756;BME280;32506;52.826;-1.192;2023-03-23T02:44:13;98772.25;;;9.17;58.42
46756;BME280;32506;52.826;-1.192;2023-03-23T02:46:41;98775.38;;;9.14;58.40
46756;BME280;32506;52.826;-1.192;2023-03-23T02:49:08;98764.19;;;9.12;58.42
46756;BME280;32506;52.826;-1.192;2023-03-23T02:51:36;98772.44;;;9.11;58.37
46756;BME280;32506;52.826;-1.192;2023-03-23T02:54:04;98769.19;;;9.09;58.35
46756;BME280;32506;52.826;-1.192;2023-03-23T02:56:31;98771.31;;;9.06;58.36
46756;BME280;32506;52.826;-1.192;2023-03-23T02:58:58;98782.19;;;9.05;58.44
46756;BME280;32506;52.826;-1.192;2023-03-23T03:03:58;98782.16;;;9.00;58.39
46756;BME280;32506;52.826;-1.192;2023-03-23T03:06:50;98783.44;;;8.97;58.50
46756;BME280;32506;52.826;-1.192;2023-03-23T03:11:57;98795.88;;;8.92;58.48
46756;BME280;32506;52.826;-1.192;2023-03-23T03:14:31;98801.44;;;8.90;58.07
46756;BME280;32506;52.826;-1.192;2023-03-23T03:17:05;98800.91;;;8.88;58.39
46756;BME280;32506;52.826;-1.192;2023-03-23T03:19:36;98805.91;;;8.84;58.38
46756;BME280;32506;52.826;-1.192;2023-03-23T03:22:02;98808.25;;;8.81;58.06
46756;BME280;32506;52.826;-1.192;2023-03-23T03:24:31;98816.47;;;8.79;58.18
46756;BME280;32506;52.826;-1.192;2023-03-23T03:27:00;98808.75;;;8.78;58.13
46756;BME280;32506;52.826;-1.192;2023-03-23T03:29:33;98817.22;;;8.75;58.29
46756;BME280;32506;52.826;-1.192;2023-03-23T03:32:01;98826.50;;;8.72;58.23
46756;BME280;32506;52.826;-1.192;2023-03-23T03:34:30;98816.09;;;8.70;58.43
46756;BME280;32506;52.826;-1.192;2023-03-23T03:36:58;98826.44;;;8.67;58.16
46756;BME280;32506;52.826;-1.192;2023-03-23T03:39:25;98823.19;;;8.65;58.13
46756;BME280;32506;52.826;-1.192;2023-03-23T03:41:50;98832.72;;;8.61;58.08
46756;BME280;32506;52.826;-1.192;2023-03-23T03:44:16;98830.28;;;8.59;58.46
46756;BME280;32506;52.826;-1.192;2023-03-23T03:46:42;98832.41;;;8.57;57.94
46756;BME280;32506;52.826;-1.192;2023-03-23T03:49:09;98836.38;;;8.54;58.41
46756;BME280;32506;52.826;-1.192;2023-03-23T03:51:35;98833.38;;;8.51;58.36
46756;BME280;32506;52.826;-1.192;2023-03-23T03:54:01;98841.59;;;8.49;58.48
46756;BME280;32506;52.826;-1.192;2023-03-23T03:56:27;98840.47;;;8.45;58.42
46756;BME280;32506;52.826;-1.192;2023-03-23T03:58:53;98836.41;;;8.43;57.99
46756;BME280;32506;52.826;-1.192;2023-03-23T04:01:20;98835.81;;;8.40;58.50
46756;BME280;32506;52.826;-1.192;2023-03-23T04:03:50;98839.81;;;8.38;58.32
46756;BME280;32506;52.826;-1.192;2023-03-23T04:06:16;98843.75;;;8.35;58.35
46756;BME280;32506;52.826;-1.192;2023-03-23T04:08:42;98834.38;;;8.33;57.97
46756;BME280;32506;52.826;-1.192;2023-03-23T04:11:09;98833.25;;;8.29;58.36
46756;BME280;32506;52.826;-1.192;2023-03-23T04:13:34;98838.78;;;8.27;58.11
46756;BME280;32506;52.826;-1.192;2023-03-23T04:15:59;98838.25;;;8.25;58.15
46756;BME280;32506;52.826;-1.192;2023-03-23T04:18:25;98835.25;;;8.21;58.44
46756;BME280;32506;52.826;-1.192;2023-03-23T04:20:51;98829.38;;;8.19;58.19
46756;BME280;32506;52.826;-1.192;2023-03-23T04:23:18;98837.00;;;8.16;58.60
46756;BME280;32506;52.826;-1.192;2023-03-23T04:25:46;98837.50;;;8.13;58.14
46756;BME280;32506;52.826;-1.192;2023-03-23T04:28:12;98839.59;;;8.11;58.35
46756;BME280;32506;52.826;-1.192;2023-03-23T04:30:38;98840.06;;;8.07;58.60
46756;BME280;32506;52.826;-1.192;2023-03-23T04:33:04;98837.91;;;8.04;58.60
46756;BME280;32506;52.826;-1.192;2023-03-23T04:35:30;98831.19;;;8.02;58.11
46756;BME280;32506;52.826;-1.192;2023-03-23T04:37:56;98825.28;;;8.00;58.57
46756;BME280;32506;52.826;-1.192;2023-03-23T04:40:22;98834.78;;;7.96;58.14
46756;BME280;32506;52.826;-1.192;2023-03-23T04:42:48;98834.00;;;7.95;58.23
46756;BME280;32506;52.826;-1.192;2023-03-23T04:45:19;98837.13;;;7.92;58.35
46756;BME280;32506;52.826;-1.192;2023-03-23T04:47:49;98841.28;;;7.88;58.14
46756;BME280;32506;52.826;-1.192;2023-03-23T04:50:24;98846.06;;;7.86;58.65
46756;BME280;32506;52.826;-1.192;2023-03-23T04:52:51;98850.00;;;7.83;58.16
46756;BME280;32506;52.826;-1.192;2023-03-23T04:55:18;98847.81;;;7.80;58.51
46756;BME280;32506;52.826;-1.192;2023-03-23T04:57:44;98852.56;;;7.78;58.17
46756;BME280;32506;52.826;-1.192;2023-03-23T05:00:11;98847.72;;;7.75;58.63
46756;BME280;32506;52.826;-1.192;2023-03-23T05:02:39;98855.13;;;7.73;58.30
46756;BME280;32506;52.826;-1.192;2023-03-23T05:05:11;98859.28;;;7.69;58.70
46756;BME280;32506;52.826;-1.192;2023-03-23T05:07:41;98861.41;;;7.67;58.43
46756;BME280;32506;52.826;-1.192;2023-03-23T05:10:08;98860.00;;;7.64;58.51
46756;BME280;32506;52.826;-1.192;2023-03-23T05:12:35;98863.94;;;7.62;58.66
46756;BME280;32506;52.826;-1.192;2023-03-23T05:15:00;98859.06;;;7.59;58.77
46756;BME280;32506;52.826;-1.192;2023-03-23T05:17:26;98861.19;;;7.56;58.68
46756;BME280;32506;52.826;-1.192;2023-03-23T05:19:52;98865.91;;;7.54;58.50
46756;BME280;32506;52.826;-1.192;2023-03-23T05:22:19;98859.22;;;7.52;58.35
46756;BME280;32506;52.826;-1.192;2023-03-23T05:24:49;98853.56;;;7.48;57.89
46756;BME280;32506;52.826;-1.192;2023-03-23T05:27:17;98860.16;;;7.46;58.28
46756;BME280;32506;52.826;-1.192;2023-03-23T05:29:44;98858.78;;;7.43;58.35
46756;BME280;32506;52.826;-1.192;2023-03-23T05:32:11;98862.72;;;7.41;58.57
46756;BME280;32506;52.826;-1.192;2023-03-23T05:34:36;98853.34;;;7.38;58.22
46756;BME280;32506;52.826;-1.192;2023-03-23T05:37:03;98854.63;;;7.35;58.68
46756;BME280;32506;52.826;-1.192;2023-03-23T05:39:30;98855.09;;;7.32;58.56
46756;BME280;32506;52.826;-1.192;2023-03-23T05:41:56;98856.94;;;7.32;58.61
46756;BME280;32506;52.826;-1.192;2023-03-23T05:44:22;98857.16;;;7.30;58.78
46756;BME280;32506;52.826;-1.192;2023-03-23T05:46:48;98866.41;;;7.28;59.58
46756;BME280;32506;52.826;-1.192;2023-03-23T05:49:14;98852.56;;;7.26;59.02
46756;BME280;32506;52.826;-1.192;2023-03-23T05:51:44;98853.03;;;7.22;59.77
46756;BME280;32506;52.826;-1.192;2023-03-23T05:54:11;98852.22;;;7.22;60.14
46756;BME280;32506;52.826;-1.192;2023-03-23T05:56:37;98856.97;;;7.20;59.91
46756;BME280;32506;52.826;-1.192;2023-03-23T05:59:03;98855.59;;;7.17;60.02
46756;BME280;32506;52.826;-1.192;2023-03-23T06:01:29;98850.50;;;7.16;60.27
46756;BME280;32506;52.826;-1.192;2023-03-23T06:03:55;98844.38;;;7.15;60.22
46756;BME280;32506;52.826;-1.192;2023-03-23T06:06:25;98842.53;;;7.16;60.16
46756;BME280;32506;52.826;-1.192;2023-03-23T06:08:51;98843.56;;;7.15;60.82
46756;BME280;32506;52.826;-1.192;2023-03-23T06:11:17;98843.81;;;7.13;60.58
46756;BME280;32506;52.826;-1.192;2023-03-23T06:13:44;98842.19;;;7.12;61.04
46756;BME280;32506;52.826;-1.192;2023-03-23T06:16:10;98845.63;;;7.13;60.88
46756;BME280;32506;52.826;-1.192;2023-03-23T06:18:35;98847.50;;;7.12;61.06
46756;BME280;32506;52.826;-1.192;2023-03-23T06:21:05;98843.22;;;7.11;61.60
46756;BME280;32506;52.826;-1.192;2023-03-23T06:23:31;98859.16;;;7.11;61.40
46756;BME280;32506;52.826;-1.192;2023-03-23T06:25:59;98852.22;;;7.10;61.42
46756;BME280;32506;52.826;-1.192;2023-03-23T06:28:25;98853.84;;;7.11;61.86
46756;BME280;32506;52.826;-1.192;2023-03-23T06:30:52;98852.22;;;7.10;62.07
46756;BME280;32506;52.826;-1.192;2023-03-23T06:33:18;98850.41;;;7.11;61.65
46756;BME280;32506;52.826;-1.192;2023-03-23T06:35:43;98849.56;;;7.10;62.25
46756;BME280;32506;52.826;-1.192;2023-03-23T06:38:09;98856.75;;;7.10;62.22
46756;BME280;32506;52.826;-1.192;2023-03-23T06:40:35;98853.06;;;7.11;62.33
46756;BME280;32506;52.826;-1.192;2023-03-23T06:43:04;98867.94;;;7.12;62.13
46756;BME280;32506;52.826;-1.192;2023-03-23T06:45:30;98852.00;;;7.12;62.85
46756;BME280;32506;52.826;-1.192;2023-03-23T06:47:55;98865.28;;;7.12;62.32
46756;BME280;32506;52.826;-1.192;2023-03-23T06:50:21;98857.88;;;7.14;62.98
46756;BME280;32506;52.826;-1.192;2023-03-23T06:52:48;98865.84;;;7.14;63.12
46756;BME280;32506;52.826;-1.192;2023-03-23T06:55:14;98859.50;;;7.15;63.10
46756;BME280;32506;52.826;-1.192;2023-03-23T06:57:41;98867.25;;;7.16;63.24
46756;BME280;32506;52.826;-1.192;2023-03-23T07:00:08;98858.25;;;7.17;63.14
46756;BME280;32506;52.826;-1.192;2023-03-23T07:02:38;98860.66;;;7.19;63.01
46756;BME280;32506;52.826;-1.192;2023-03-23T07:05:04;98865.75;;;7.20;63.24
46756;BME280;32506;52.826;-1.192;2023-03-23T07:07:29;98855.69;;;7.22;62.91
46756;BME280;32506;52.826;-1.192;2023-03-23T07:09:55;98859.16;;;7.23;62.90
46756;BME280;32506;52.826;-1.192;2023-03-23T07:12:21;98858.91;;;7.25;62.46
46756;BME280;32506;52.826;-1.192;2023-03-23T07:14:47;98844.34;;;7.27;62.30
46756;BME280;32506;52.826;-1.192;2023-03-23T07:17:12;98847.81;;;7.28;62.43
46756;BME280;32506;52.826;-1.192;2023-03-23T07:19:38;98849.19;;;7.30;62.11
46756;BME280;32506;52.826;-1.192;2023-03-23T07:22:05;98844.47;;;7.32;61.86
46756;BME280;32506;52.826;-1.192;2023-03-23T07:24:31;98850.59;;;7.33;62.06
46756;BME280;32506;52.826;-1.192;2023-03-23T07:26:56;98845.84;;;7.35;61.94
46756;BME280;32506;52.826;-1.192;2023-03-23T07:29:22;98846.41;;;7.37;62.18
46756;BME280;32506;52.826;-1.192;2023-03-23T07:31:48;98833.72;;;7.39;62.00
46756;BME280;32506;52.826;-1.192;2023-03-23T07:34:13;98828.16;;;7.41;61.40
46756;BME280;32506;52.826;-1.192;2023-03-23T07:36:40;98832.19;;;7.43;61.58
46756;BME280;32506;52.826;-1.192;2023-03-23T07:39:05;98832.75;;;7.45;61.95
46756;BME280;32506;52.826;-1.192;2023-03-23T07:41:32;98837.88;;;7.47;61.94
46756;BME280;32506;52.826;-1.192;2023-03-23T07:43:57;98823.28;;;7.49;61.70
46756;BME280;32506;52.826;-1.192;2023-03-23T07:46:23;98832.63;;;7.52;62.03
46756;BME280;32506;52.826;-1.192;2023-03-23T07:48:49;98837.72;;;7.53;61.96
46756;BME280;32506;52.826;-1.192;2023-03-23T07:51:15;98825.81;;;7.56;62.03
46756;BME280;32506;52.826;-1.192;2023-03-23T07:53:42;98820.81;;;7.60;62.11
46756;BME280;32506;52.826;-1.192;2023-03-23T07:56:13;98816.63;;;7.64;62.68
46756;BME280;32506;52.826;-1.192;2023-03-23T07:58:41;98814.31;;;7.67;62.90
46756;BME280;32506;52.826;-1.192;2023-03-23T08:01:07;98825.31;;;7.71;63.02
46756;BME280;32506;52.826;-1.192;2023-03-23T08:03:33;98823.78;;;7.75;62.80
46756;BME280;32506;52.826;-1.192;2023-03-23T08:05:59;98820.41;;;7.80;63.09
46756;BME280;32506;52.826;-1.192;2023-03-23T08:08:25;98827.69;;;7.84;63.64
46756;BME280;32506;52.826;-1.192;2023-03-23T08:10:51;98831.47;;;7.88;63.59
46756;BME280;32506;52.826;-1.192;2023-03-23T08:13:16;98831.59;;;7.94;64.47
46756;BME280;32506;52.826;-1.192;2023-03-23T08:15:43;98831.66;;;7.99;63.96
46756;BME280;32506;52.826;-1.192;2023-03-23T08:18:09;98827.25;;;8.04;64.95
46756;BME280;32506;52.826;-1.192;2023-03-23T08:20:35;98840.41;;;8.11;64.69
46756;BME280;32506;52.826;-1.192;2023-03-23T08:23:02;98835.72;;;8.18;65.68
46756;BME280;32506;52.826;-1.192;2023-03-23T08:25:31;98842.53;;;8.26;65.54
46756;BME280;32506;52.826;-1.192;2023-03-23T08:27:57;98829.63;;;8.35;66.18
46756;BME280;32506;52.826;-1.192;2023-03-23T08:30:24;98832.69;;;8.44;66.65
46756;BME280;32506;52.826;-1.192;2023-03-23T08:32:51;98830.22;;;8.54;67.20
46756;BME280;32506;52.826;-1.192;2023-03-23T08:35:18;98840.25;;;8.64;66.91
46756;BME280;32506;52.826;-1.192;2023-03-23T08:37:45;98840.38;;;8.74;67.20
46756;BME280;32506;52.826;-1.192;2023-03-23T08:40:13;98836.84;;;8.85;67.45
46756;BME280;32506;52.826;-1.192;2023-03-23T08:42:43;98841.25;;;8.97;67.03
46756;BME280;32506;52.826;-1.192;2023-03-23T08:45:11;98835.81;;;9.09;67.29
46756;BME280;32506;52.826;-1.192;2023-03-23T08:47:37;98836.50;;;9.21;67.43
46756;BME280;32506;52.826;-1.192;2023-03-23T08:50:05;98839.56;;;9.30;66.49
46756;BME280;32506;52.826;-1.192;2023-03-23T08:52:31;98836.22;;;9.39;66.57
46756;BME280;32506;52.826;-1.192;2023-03-23T08:54:57;98834.47;;;9.50;66.48
46756;BME280;32506;52.826;-1.192;2023-03-23T08:57:23;98830.59;;;9.58;66.49
46756;BME280;32506;52.826;-1.192;2023-03-23T08:59:49;98837.34;;;9.66;66.42
46756;BME280;32506;52.826;-1.192;2023-03-23T09:02:15;98838.53;;;9.75;66.15
46756;BME280;32506;52.826;-1.192;2023-03-23T09:04:41;98838.06;;;9.83;66.09
46756;BME280;32506;52.826;-1.192;2023-03-23T09:07:10;98835.75;;;9.92;65.84
46756;BME280;32506;52.826;-1.192;2023-03-23T09:09:38;98833.97;;;9.98;65.87
46756;BME280;32506;52.826;-1.192;2023-03-23T09:12:08;98835.59;;;10.04;65.39
46756;BME280;32506;52.826;-1.192;2023-03-23T09:14:36;98834.34;;;10.12;65.83
46756;BME280;32506;52.826;-1.192;2023-03-23T09:17:03;98840.84;;;10.21;65.95
46756;BME280;32506;52.826;-1.192;2023-03-23T09:19:30;98825.41;;;10.28;65.90
46756;BME280;32506;52.826;-1.192;2023-03-23T09:22:02;98829.00;;;10.39;65.93
46756;BME280;32506;52.826;-1.192;2023-03-23T09:24:29;98825.06;;;10.47;65.86
46756;BME280;32506;52.826;-1.192;2023-03-23T09:26:54;98831.56;;;10.56;65.63
46756;BME280;32506;52.826;-1.192;2023-03-23T09:29:19;98834.56;;;10.65;65.94
46756;BME280;32506;52.826;-1.192;2023-03-23T09:31:46;98833.03;;;10.74;65.70
46756;BME280;32506;52.826;-1.192;2023-03-23T09:34:13;98818.94;;;10.84;65.83
46756;BME280;32506;52.826;-1.192;2023-03-23T09:36:41;98817.63;;;10.91;65.75
46756;BME280;32506;52.826;-1.192;2023-03-23T09:39:06;98828.66;;;11.00;65.55
46756;BME280;32506;52.826;-1.192;2023-03-23T09:52:17;98840.66;;;11.46;64.64
46756;BME280;32506;52.826;-1.192;2023-03-23T09:54:51;98839.09;;;11.55;64.51
46756;BME280;32506;52.826;-1.192;2023-03-23T09:57:34;98838.31;;;11.65;64.35
46756;BME280;32506;52.826;-1.192;2023-03-23T10:00:06;98838.59;;;11.73;64.88
46756;BME280;32506;52.826;-1.192;2023-03-23T10:05:39;98845.41;;;11.97;64.61
46756;BME280;32506;52.826;-1.192;2023-03-23T10:08:24;98848.09;;;12.07;64.54
46756;BME280;32506;52.826;-1.192;2023-03-23T10:16:17;98842.78;;;12.38;63.72
46756;BME280;32506;52.826;-1.192;2023-03-23T10:18:54;98858.88;;;12.48;63.88
46756;BME280;32506;52.826;-1.192;2023-03-23T10:21:24;98851.91;;;12.57;63.49
46756;BME280;32506;52.826;-1.192;2023-03-23T10:24:02;98857.53;;;12.66;63.25
46756;BME280;32506;52.826;-1.192;2023-03-23T10:31:39;98852.41;;;12.96;63.14
46756;BME280;32506;52.826;-1.192;2023-03-23T10:34:17;98861.78;;;13.08;62.88
46756;BME280;32506;52.826;-1.192;2023-03-23T10:37:03;98849.44;;;13.18;62.82
46756;BME280;32506;52.826;-1.192;2023-03-23T10:39:38;98860.13;;;13.28;62.41
46756;BME280;32506;52.826;-1.192;2023-03-23T10:42:08;98853.41;;;13.36;61.89
46756;BME280;32506;52.826;-1.192;2023-03-23T10:44:35;98850.16;;;13.44;62.25
46756;BME280;32506;52.826;-1.192;2023-03-23T10:47:03;98846.41;;;13.50;62.08
46756;BME280;32506;52.826;-1.192;2023-03-23T10:49:32;98849.56;;;13.57;61.84
46756;BME280;32506;52.826;-1.192;2023-03-23T10:52:35;98843.38;;;13.67;61.68
46756;BME280;32506;52.826;-1.192;2023-03-23T10:55:06;98837.19;;;13.72;61.57
46756;BME280;32506;52.826;-1.192;2023-03-23T10:57:34;98847.63;;;13.79;61.20
46756;BME280;32506;52.826;-1.192;2023-03-23T11:02:46;98856.41;;;13.89;60.39
46756;BME280;32506;52.826;-1.192;2023-03-23T11:05:24;98833.00;;;13.95;60.26
46756;BME280;32506;52.826;-1.192;2023-03-23T11:07:54;98842.13;;;13.99;60.28
46756;BME280;32506;52.826;-1.192;2023-03-23T11:10:34;98842.09;;;14.04;60.25
46756;BME280;32506;52.826;-1.192;2023-03-23T11:13:00;98845.03;;;14.08;59.85
46756;BME280;32506;52.826;-1.192;2023-03-23T11:15:38;98843.13;;;14.14;59.85
46756;BME280;32506;52.826;-1.192;2023-03-23T11:18:34;98842.28;;;14.18;59.68
46756;BME280;32506;52.826;-1.192;2023-03-23T11:20:54;98825.31;;;14.23;59.62
46756;BME280;32506;52.826;-1.192;2023-03-23T11:26:03;98822.28;;;14.35;59.75
46756;BME280;32506;52.826;-1.192;2023-03-23T11:28:33;98824.91;;;14.45;59.61
46756;BME280;32506;52.826;-1.192;2023-03-23T11:31:02;98838.25;;;14.55;59.52
46756;BME280;32506;52.826;-1.192;2023-03-23T11:33:46;98834.44;;;14.67;59.55
46756;BME280;32506;52.826;-1.192;2023-03-23T11:36:12;98814.66;;;14.82;59.63
46756;BME280;32506;52.826;-1.192;2023-03-23T11:38:39;98819.63;;;14.99;59.74
46756;BME280;32506;52.826;-1.192;2023-03-23T11:41:10;98810.28;;;15.15;59.35
46756;BME280;32506;52.826;-1.192;2023-03-23T11:43:39;98833.75;;;15.34;59.15
46756;BME280;32506;52.826;-1.192;2023-03-23T11:49:00;98828.44;;;15.72;58.62
46756;BME280;32506;52.826;-1.192;2023-03-23T11:54:43;98814.81;;;16.06;57.60
46756;BME280;32506;52.826;-1.192;2023-03-23T11:57:12;98811.06;;;16.21;57.40
46756;BME280;32506;52.826;-1.192;2023-03-23T11:59:39;98807.63;;;16.35;56.76
46756;BME280;32506;52.826;-1.192;2023-03-23T12:11:07;98811.22;;;16.96;56.56
46756;BME280;32506;52.826;-1.192;2023-03-23T12:16:22;98817.28;;;17.30;55.95
46756;BME280;32506;52.826;-1.192;2023-03-23T12:27:18;98795.28;;;18.01;55.55
46756;BME280;32506;52.826;-1.192;2023-03-23T12:30:09;98795.31;;;18.23;55.83
46756;BME280;32506;52.826;-1.192;2023-03-23T12:48:44;98798.13;;;19.35;52.55
46756;BME280;32506;52.826;-1.192;2023-03-23T12:56:37;98783.53;;;19.80;52.45
46756;BME280;32506;52.826;-1.192;2023-03-23T13:02:21;98793.78;;;20.09;51.37
46756;BME280;32506;52.826;-1.192;2023-03-23T13:05:45;98764.09;;;20.22;50.73
46756;BME280;32506;52.826;-1.192;2023-03-23T13:07:53;98768.38;;;20.32;49.80
46756;BME280;32506;52.826;-1.192;2023-03-23T13:10:28;98761.34;;;20.39;49.64
46756;BME280;32506;52.826;-1.192;2023-03-23T13:12:55;98751.59;;;20.47;50.22
46756;BME280;32506;52.826;-1.192;2023-03-23T13:16:02;98753.31;;;20.60;50.49
46756;BME280;32506;52.826;-1.192;2023-03-23T13:21:14;98743.06;;;20.75;49.56
46756;BME280;32506;52.826;-1.192;2023-03-23T13:23:50;98749.56;;;20.83;49.76
46756;BME280;32506;52.826;-1.192;2023-03-23T13:26:21;98753.53;;;20.94;50.15
46756;BME280;32506;52.826;-1.192;2023-03-23T13:31:27;98763.66;;;21.15;49.81
46756;BME280;32506;52.826;-1.192;2023-03-23T13:34:28;98776.38;;;21.23;49.74
46756;BME280;32506;52.826;-1.192;2023-03-23T13:37:24;98762.75;;;21.32;49.62
46756;BME280;32506;52.826;-1.192;2023-03-23T13:42:34;98732.28;;;21.47;50.04
46756;BME280;32506;52.826;-1.192;2023-03-23T13:45:21;98728.53;;;21.60;49.67
46756;BME280;32506;52.826;-1.192;2023-03-23T13:47:48;98709.78;;;21.68;49.13
46756;BME280;32506;52.826;-1.192;2023-03-23T14:05:40;98739.09;;;22.50;47.33
46756;BME280;32506;52.826;-1.192;2023-03-23T14:10:41;98753.88;;;22.61;47.43
46756;BME280;32506;52.826;-1.192;2023-03-23T14:13:37;98737.66;;;22.65;47.17
46756;BME280;32506;52.826;-1.192;2023-03-23T14:16:13;98728.22;;;22.62;46.80
46756;BME280;32506;52.826;-1.192;2023-03-23T14:18:41;98723.59;;;22.63;46.18
46756;BME280;32506;52.826;-1.192;2023-03-23T14:21:41;98723.38;;;22.68;45.96
46756;BME280;32506;52.826;-1.192;2023-03-23T14:24:12;98729.25;;;22.70;45.78
46756;BME280;32506;52.826;-1.192;2023-03-23T14:26:38;98732.09;;;22.74;45.39
46756;BME280;32506;52.826;-1.192;2023-03-23T14:29:06;98728.25;;;22.75;45.61
46756;BME280;32506;52.826;-1.192;2023-03-23T14:31:32;98736.88;;;22.77;45.33
46756;BME280;32506;52.826;-1.192;2023-03-23T14:34:03;98727.56;;;22.78;45.25
46756;BME280;32506;52.826;-1.192;2023-03-23T14:36:30;98729.47;;;22.77;45.36
46756;BME280;32506;52.826;-1.192;2023-03-23T14:39:19;98708.84;;;22.76;45.86
46756;BME280;32506;52.826;-1.192;2023-03-23T14:41:46;98712.91;;;22.70;46.01
46756;BME280;32506;52.826;-1.192;2023-03-23T14:44:20;98733.00;;;22.66;46.14
46756;BME280;32506;52.826;-1.192;2023-03-23T14:46:46;98726.31;;;22.63;46.21
46756;BME280;32506;52.826;-1.192;2023-03-23T14:49:17;98707.13;;;22.59;45.76
46756;BME280;32506;52.826;-1.192;2023-03-23T14:51:51;98707.91;;;22.60;45.92
46756;BME280;32506;52.826;-1.192;2023-03-23T14:54:25;98700.66;;;22.52;45.69
46756;BME280;32506;52.826;-1.192;2023-03-23T14:56:51;98691.22;;;22.49;46.11
46756;BME280;32506;52.826;-1.192;2023-03-23T14:59:17;98706.00;;;22.48;45.85
46756;BME280;32506;52.826;-1.192;2023-03-23T15:01:45;98698.16;;;22.46;45.79
46756;BME280;32506;52.826;-1.192;2023-03-23T15:04:23;98691.91;;;22.46;45.56
46756;BME280;32506;52.826;-1.192;2023-03-23T15:06:55;98695.66;;;22.41;45.74
46756;BME280;32506;52.826;-1.192;2023-03-23T15:09:22;98702.56;;;22.39;46.16
46756;BME280;32506;52.826;-1.192;2023-03-23T15:11:56;98691.56;;;22.35;45.66
46756;BME280;32506;52.826;-1.192;2023-03-23T15:14:29;98689.03;;;22.30;45.81
46756;BME280;32506;52.826;-1.192;2023-03-23T15:16:56;98712.16;;;22.24;46.48